Time;durP1;ratioP1;P1;durP2;ratioP2;P2;SDS_P1;SDS_P2;PMS_P1;PMS_P2;Temp;Humidity;BMP_temperature;BMP_pressure;BME280_temperature;BME280_humidity;BME280_pressure;Samples;Min_cycle;Max_cycle;Signal;HPM_P1;HPM_P2
2022/07/03 00:02:07;;;;;;;6.05;3.63;;;20.90;64.90;;;;;;5067265;28;20086;-70
2022/07/03 00:04:33;;;;;;;5.88;3.38;;;20.90;65.00;;;;;;5055738;28;20033;-70
2022/07/03 00:06:59;;;;;;;5.93;3.58;;;20.80;65.40;;;;;;5038970;28;20045;-70
2022/07/03 00:09:24;;;;;;;7.47;3.78;;;20.80;65.60;;;;;;5050792;28;20060;-70
2022/07/03 00:11:50;;;;;;;6.85;4.82;;;20.80;65.50;;;;;;5038763;28;20030;-70
2022/07/03 00:14:16;;;;;;;6.10;3.60;;;20.80;65.80;;;;;;5050854;28;20040;-70
2022/07/03 00:16:42;;;;;;;5.72;3.80;;;20.80;65.90;;;;;;5041646;28;20159;-70
2022/07/03 00:19:07;;;;;;;4.63;3.75;;;20.70;65.90;;;;;;5048685;28;20071;-70
2022/07/03 00:21:45;;;;;;;4.93;3.83;;;20.80;66.10;;;;;;5054380;28;20535;-70
2022/07/03 00:24:40;;;;;;;4.70;3.70;;;20.70;66.50;;;;;;5051789;28;20044;-70
2022/07/03 00:27:09;;;;;;;4.93;3.20;;;20.70;67.00;;;;;;5036295;28;20029;-70
2022/07/03 00:29:38;;;;;;;5.15;3.72;;;20.60;66.60;;;;;;5049409;28;20115;-70
2022/07/03 00:32:06;;;;;;;7.35;3.85;;;20.60;66.70;;;;;;5034901;28;20032;-70
2022/07/03 00:34:32;;;;;;;4.18;3.28;;;20.60;66.80;;;;;;5049276;28;20041;-70
2022/07/03 00:37:01;;;;;;;4.70;3.40;;;20.60;66.90;;;;;;5035412;28;20026;-70
2022/07/03 00:39:27;;;;;;;5.45;4.10;;;20.60;66.90;;;;;;5051783;28;20399;-71
2022/07/03 00:42:01;;;;;;;6.07;3.45;;;20.50;66.90;;;;;;5054967;28;20021;-71
2022/07/03 00:44:28;;;;;;;4.30;3.60;;;20.50;67.40;;;;;;5059862;28;20053;-70
2022/07/03 00:46:55;;;;;;;4.65;3.58;;;20.50;67.40;;;;;;5058016;28;20095;-71
2022/07/03 00:49:23;;;;;;;3.85;2.95;;;20.50;68.00;;;;;;5054337;28;20029;-70
2022/07/03 00:51:52;;;;;;;4.50;3.15;;;20.50;67.70;;;;;;5054219;28;20060;-69
2022/07/03 00:54:21;;;;;;;8.15;3.80;;;20.50;68.00;;;;;;5052854;28;20484;-69
2022/07/03 00:56:54;;;;;;;4.78;3.58;;;20.40;68.00;;;;;;5037959;28;20044;-69
2022/07/03 00:59:20;;;;;;;4.40;3.50;;;20.50;68.00;;;;;;5049749;28;20033;-70
2022/07/03 01:01:51;;;;;;;4.25;3.53;;;20.40;68.30;;;;;;5051535;28;20025;-71
2022/07/03 01:04:36;;;;;;;4.95;3.60;;;20.40;68.10;;;;;;5052952;28;20040;-70
2022/07/03 01:07:06;;;;;;;4.07;3.60;;;20.30;68.40;;;;;;5035969;28;20038;-71
2022/07/03 01:09:58;;;;;;;4.97;3.53;;;20.30;68.40;;;;;;5051107;28;20515;-70
2022/07/03 01:12:48;;;;;;;4.82;3.30;;;20.30;68.50;;;;;;5034680;28;20099;-70
2022/07/03 01:15:36;;;;;;;4.50;3.17;;;20.20;68.80;;;;;;5053239;28;20037;-71
2022/07/03 01:18:25;;;;;;;4.60;3.80;;;20.20;68.80;;;;;;5051145;28;20025;-70
2022/07/03 01:21:06;;;;;;;4.85;3.30;;;20.20;68.70;;;;;;5053375;28;20036;-71
2022/07/03 01:24:02;;;;;;;5.32;4.00;;;20.20;68.90;;;;;;5051836;28;20033;-70
2022/07/03 01:26:33;;;;;;;4.97;3.50;;;20.10;69.00;;;;;;5053495;28;20025;-70
2022/07/03 01:29:07;;;;;;;4.97;3.50;;;20.10;69.00;;;;;;5046258;28;20036;-70
2022/07/03 01:31:34;;;;;;;5.13;3.72;;;20.10;69.40;;;;;;5047625;28;20116;-70
2022/07/03 01:34:03;;;;;;;5.20;3.47;;;20.10;69.40;;;;;;5047261;28;20071;-70
2022/07/03 01:36:30;;;;;;;4.88;3.40;;;20.10;69.40;;;;;;5051799;28;20040;-70
2022/07/03 01:39:01;;;;;;;4.75;3.50;;;20.00;69.40;;;;;;5052015;28;20492;-70
2022/07/03 01:41:30;;;;;;;4.20;3.10;;;20.00;69.60;;;;;;5051501;28;20033;-70
2022/07/03 01:43:58;;;;;;;4.55;3.65;;;20.00;70.10;;;;;;5051382;28;20029;-70
2022/07/03 01:46:28;;;;;;;5.32;4.00;;;20.00;70.10;;;;;;5052525;28;20032;-70
2022/07/03 01:48:55;;;;;;;4.00;3.42;;;19.90;70.20;;;;;;5051507;28;20029;-71
2022/07/03 01:51:23;;;;;;;5.13;3.38;;;19.90;70.40;;;;;;5052542;28;20037;-72
2022/07/03 01:53:49;;;;;;;5.10;3.70;;;19.90;70.30;;;;;;5052164;28;20128;-72
2022/07/03 01:56:17;;;;;;;5.00;3.83;;;19.90;70.40;;;;;;5035437;28;20059;-71
2022/07/03 01:58:43;;;;;;;6.35;3.95;;;19.80;70.80;;;;;;5042683;28;20079;-71
2022/07/03 02:01:17;;;;;;;5.10;3.42;;;19.80;70.80;;;;;;5035004;28;20033;-71
2022/07/03 02:03:57;;;;;;;3.58;3.03;;;19.80;70.90;;;;;;5042842;28;20028;-71
2022/07/03 02:06:44;;;;;;;4.78;3.63;;;19.80;71.00;;;;;;5050056;28;20029;-71
2022/07/03 02:09:11;;;;;;;4.90;3.83;;;19.70;71.10;;;;;;5041016;28;20037;-71
2022/07/03 02:11:40;;;;;;;5.47;3.47;;;19.70;71.30;;;;;;5032375;28;20021;-71
2022/07/03 02:14:05;;;;;;;3.90;3.50;;;19.70;72.10;;;;;;5046309;28;20037;-71
2022/07/03 02:16:48;;;;;;;5.45;4.10;;;19.70;71.50;;;;;;5052253;28;20055;-71
2022/07/03 02:19:15;;;;;;;5.10;4.07;;;19.60;71.80;;;;;;5049565;28;20044;-71
2022/07/03 02:21:51;;;;;;;5.20;3.88;;;19.60;71.80;;;;;;5053899;28;20021;-70
2022/07/03 02:24:26;;;;;;;5.55;4.18;;;19.60;72.10;;;;;;5051140;28;20033;-72
2022/07/03 02:27:04;;;;;;;5.25;3.65;;;19.60;72.20;;;;;;5038702;28;20033;-71
2022/07/03 02:29:54;;;;;;;5.78;3.97;;;19.60;72.30;;;;;;5051350;28;20083;-70
2022/07/03 02:32:25;;;;;;;5.13;3.90;;;19.60;72.30;;;;;;5038993;28;20051;-70
2022/07/03 02:35:04;;;;;;;7.45;4.10;;;19.60;72.60;;;;;;5050290;28;20045;-70
2022/07/03 02:37:34;;;;;;;4.88;3.88;;;19.50;72.60;;;;;;5043150;28;20083;-71
2022/07/03 02:40:24;;;;;;;4.63;4.05;;;19.50;72.80;;;;;;5033810;28;20060;-71
2022/07/03 02:43:14;;;;;;;5.75;3.75;;;19.50;72.90;;;;;;5040039;28;20120;-71
2022/07/03 02:46:48;;;;;;;4.57;3.35;;;19.50;73.20;;;;;;5052036;28;20036;-70
2022/07/03 02:48:51;;;;;;;4.97;4.20;;;19.50;73.50;;;;;;5050115;28;20040;-70
2022/07/03 02:51:33;;;;;;;6.55;4.43;;;19.50;73.70;;;;;;5050292;28;20025;-70
2022/07/03 02:54:15;;;;;;;4.28;3.78;;;19.50;74.00;;;;;;5042196;28;20033;-70
2022/07/03 02:56:59;;;;;;;5.80;4.10;;;19.40;74.00;;;;;;5032315;28;20029;-72
2022/07/03 02:59:33;;;;;;;4.80;4.05;;;19.40;74.50;;;;;;5044125;28;20031;-72
2022/07/03 03:02:22;;;;;;;5.18;4.40;;;19.40;74.60;;;;;;5034280;28;20112;-71
2022/07/03 03:05:03;;;;;;;4.03;3.60;;;19.40;74.70;;;;;;5050705;28;20032;-71
2022/07/03 03:07:49;;;;;;;5.90;4.60;;;19.40;74.80;;;;;;5050726;28;20088;-72
2022/07/03 03:10:19;;;;;;;6.25;4.43;;;19.40;74.90;;;;;;5031478;28;20373;-71
2022/07/03 03:12:50;;;;;;;6.63;3.78;;;19.30;75.00;;;;;;5034556;28;20021;-71
2022/07/03 03:15:16;;;;;;;5.57;3.60;;;19.30;75.20;;;;;;5035968;28;20430;-70
2022/07/03 03:17:49;;;;;;;4.40;3.97;;;19.30;75.40;;;;;;5033414;28;20961;-70
2022/07/03 03:20:16;;;;;;;7.15;5.18;;;19.30;75.50;;;;;;5031826;28;20045;-70
2022/07/03 03:23:10;;;;;;;5.47;4.22;;;19.30;75.70;;;;;;5031439;28;20033;-70
2022/07/03 03:25:36;;;;;;;4.45;3.78;;;19.30;75.70;;;;;;5034306;28;20090;-70
2022/07/03 03:28:02;;;;;;;5.97;3.97;;;19.30;75.90;;;;;;5042105;28;20025;-70
2022/07/03 03:30:28;;;;;;;6.43;4.05;;;19.20;76.10;;;;;;5052294;28;20056;-70
2022/07/03 03:32:54;;;;;;;6.25;4.65;;;19.30;76.70;;;;;;5053976;28;20025;-70
2022/07/03 03:35:20;;;;;;;5.35;3.72;;;19.30;76.50;;;;;;5040214;28;20041;-70
2022/07/03 03:37:48;;;;;;;4.28;3.80;;;19.30;76.60;;;;;;5038204;28;20434;-71
2022/07/03 03:40:15;;;;;;;6.15;4.38;;;19.30;76.60;;;;;;5054526;28;20040;-70
2022/07/03 03:42:41;;;;;;;6.32;4.28;;;19.30;76.60;;;;;;5050933;28;20120;-70
2022/07/03 03:45:07;;;;;;;5.88;4.70;;;19.30;76.60;;;;;;5054400;28;20124;-72
2022/07/03 03:47:33;;;;;;;5.68;4.55;;;19.30;76.70;;;;;;5053544;28;20048;-71
2022/07/03 03:49:59;;;;;;;5.15;3.83;;;19.30;76.90;;;;;;5054093;28;20100;-72
2022/07/03 03:52:25;;;;;;;4.75;3.67;;;19.30;77.00;;;;;;5052280;28;20381;-70
2022/07/03 03:54:51;;;;;;;5.68;4.53;;;19.40;77.50;;;;;;5038880;28;20041;-70
2022/07/03 03:57:18;;;;;;;6.32;4.07;;;19.40;77.10;;;;;;5043607;28;20048;-69
2022/07/03 03:59:44;;;;;;;5.50;4.43;;;19.40;77.20;;;;;;5053834;28;20538;-66
2022/07/03 04:02:10;;;;;;;4.47;3.78;;;19.40;77.20;;;;;;5040520;28;20021;-67
2022/07/03 04:04:35;;;;;;;4.95;4.18;;;19.40;77.50;;;;;;5053115;28;20026;-67
2022/07/03 04:07:01;;;;;;;4.80;4.00;;;19.40;77.70;;;;;;5037779;28;20041;-67
2022/07/03 04:09:26;;;;;;;5.03;4.13;;;19.40;77.60;;;;;;5049136;28;20056;-66
2022/07/03 04:11:52;;;;;;;6.50;3.75;;;19.40;77.60;;;;;;5038492;28;20485;-66
2022/07/03 04:14:18;;;;;;;6.22;4.15;;;19.40;77.80;;;;;;5039246;28;20060;-66
2022/07/03 04:16:43;;;;;;;4.60;3.85;;;19.50;78.00;;;;;;5034357;28;20029;-66
2022/07/03 04:19:09;;;;;;;6.20;4.38;;;19.50;77.90;;;;;;5047949;28;20029;-66
2022/07/03 04:21:34;;;;;;;4.93;4.32;;;19.50;78.00;;;;;;5054526;28;20100;-67
2022/07/03 04:24:00;;;;;;;7.32;4.28;;;19.50;78.00;;;;;;5044714;28;20033;-67
2022/07/03 04:26:26;;;;;;;5.43;4.60;;;19.60;78.10;;;;;;5048329;28;20024;-67
2022/07/03 04:28:51;;;;;;;4.82;4.00;;;19.60;78.20;;;;;;5052919;28;20047;-67
2022/07/03 04:31:17;;;;;;;4.15;3.50;;;19.60;78.30;;;;;;5049656;28;20076;-67
2022/07/03 04:33:42;;;;;;;6.28;4.35;;;19.60;78.50;;;;;;5044369;28;20029;-68
2022/07/03 04:36:08;;;;;;;5.60;4.55;;;19.60;78.20;;;;;;5038919;28;20021;-67
2022/07/03 04:38:33;;;;;;;6.57;4.38;;;19.70;78.00;;;;;;5044525;28;20017;-68
2022/07/03 04:40:59;;;;;;;5.32;3.97;;;19.70;78.50;;;;;;5051652;28;20040;-67
2022/07/03 04:43:24;;;;;;;5.25;4.40;;;19.80;78.50;;;;;;5053387;28;20036;-67
2022/07/03 04:45:50;;;;;;;5.45;4.22;;;19.90;78.40;;;;;;5053183;28;20480;-66
2022/07/03 04:48:16;;;;;;;5.20;4.20;;;19.80;78.40;;;;;;5051168;28;20214;-67
2022/07/03 04:50:41;;;;;;;7.38;4.10;;;19.90;78.40;;;;;;5044079;28;20038;-66
2022/07/03 04:53:07;;;;;;;5.07;4.10;;;19.90;78.30;;;;;;5039498;28;20037;-66
2022/07/03 04:55:32;;;;;;;5.40;4.03;;;19.90;78.20;;;;;;5041641;28;20025;-65
2022/07/03 04:57:58;;;;;;;5.00;4.18;;;20.00;78.10;;;;;;5052000;28;20033;-65
2022/07/03 05:00:23;;;;;;;5.40;4.00;;;20.00;78.10;;;;;;5052800;28;20108;-66
2022/07/03 05:02:49;;;;;;;5.57;3.95;;;20.10;78.10;;;;;;5051101;28;20365;-65
2022/07/03 05:05:14;;;;;;;5.53;3.63;;;20.10;78.30;;;;;;5053360;28;20055;-66
2022/07/03 05:07:40;;;;;;;4.90;4.10;;;20.10;78.40;;;;;;5050499;28;20338;-66
2022/07/03 05:10:06;;;;;;;4.32;3.85;;;20.20;78.20;;;;;;5052399;28;20079;-66
2022/07/03 05:12:31;;;;;;;6.35;4.03;;;20.20;78.50;;;;;;5049547;28;20033;-66
2022/07/03 05:14:57;;;;;;;5.82;3.92;;;20.30;78.50;;;;;;5053135;28;20040;-66
2022/07/03 05:17:22;;;;;;;5.05;3.97;;;20.30;78.30;;;;;;5051995;28;20025;-66
2022/07/03 05:20:23;;;;;;;5.30;4.10;;;20.40;78.50;;;;;;5053128;28;20029;-66
2022/07/03 05:22:34;;;;;;;4.22;3.83;;;20.40;78.50;;;;;;5050416;28;20022;-66
2022/07/03 05:24:59;;;;;;;6.72;4.70;;;20.50;78.60;;;;;;5049770;28;20025;-66
2022/07/03 05:27:25;;;;;;;5.00;4.00;;;20.60;78.40;;;;;;5045756;28;20025;-66
2022/07/03 05:29:50;;;;;;;4.63;3.60;;;20.60;78.00;;;;;;5053353;28;20104;-66
2022/07/03 05:32:16;;;;;;;4.75;3.85;;;20.70;77.90;;;;;;5034941;28;20028;-66
2022/07/03 05:34:41;;;;;;;4.63;3.67;;;20.70;77.50;;;;;;5050631;28;20060;-65
2022/07/03 05:37:07;;;;;;;4.35;3.63;;;20.80;77.50;;;;;;5036448;28;20022;-65
2022/07/03 05:39:32;;;;;;;4.68;3.72;;;20.90;77.40;;;;;;5050237;28;20055;-65
2022/07/03 05:41:58;;;;;;;5.28;4.07;;;20.90;77.00;;;;;;5033125;28;20076;-65
2022/07/03 05:44:23;;;;;;;4.38;3.63;;;21.00;76.90;;;;;;5036733;28;20077;-65
2022/07/03 05:46:49;;;;;;;5.13;3.80;;;21.00;76.90;;;;;;5033399;28;20025;-65
2022/07/03 05:49:14;;;;;;;6.10;4.45;;;21.10;76.70;;;;;;5047199;28;20029;-65
2022/07/03 05:51:40;;;;;;;4.65;3.33;;;21.20;76.70;;;;;;5049100;28;20021;-65
2022/07/03 05:54:05;;;;;;;4.63;3.58;;;21.20;76.60;;;;;;5040597;28;20041;-65
2022/07/03 05:56:31;;;;;;;4.50;3.65;;;21.30;76.50;;;;;;5043156;28;20038;-66
2022/07/03 05:58:56;;;;;;;5.45;3.63;;;21.30;76.30;;;;;;5038736;28;20028;-66
2022/07/03 06:01:23;;;;;;;4.85;3.65;;;21.40;76.30;;;;;;5037891;28;20091;-66
2022/07/03 06:03:49;;;;;;;4.70;3.15;;;21.50;75.90;;;;;;5037764;28;20036;-66
2022/07/03 06:06:15;;;;;;;3.55;3.10;;;21.60;75.70;;;;;;5037336;28;20127;-66
2022/07/03 06:08:40;;;;;;;5.05;3.28;;;21.70;75.00;;;;;;5037964;28;20128;-68
2022/07/03 06:11:06;;;;;;;4.25;3.10;;;21.70;74.70;;;;;;5037491;28;20446;-69
2022/07/03 06:13:31;;;;;;;4.10;3.05;;;21.80;74.10;;;;;;5039325;28;20485;-70
2022/07/03 06:15:57;;;;;;;4.47;2.97;;;21.90;74.30;;;;;;5037233;28;20039;-70
2022/07/03 06:18:23;;;;;;;4.20;2.88;;;21.90;73.80;;;;;;5037395;28;20029;-69
2022/07/03 06:20:48;;;;;;;3.90;2.80;;;22.00;73.80;;;;;;5036972;28;20461;-70
2022/07/03 06:23:14;;;;;;;3.67;2.90;;;22.00;73.90;;;;;;5038658;28;20064;-70
2022/07/03 06:25:39;;;;;;;3.67;2.90;;;22.10;74.10;;;;;;5037506;28;20032;-70
2022/07/03 06:28:05;;;;;;;4.20;3.20;;;22.20;73.40;;;;;;5047369;28;20475;-70
2022/07/03 06:30:30;;;;;;;3.63;3.05;;;22.30;72.80;;;;;;5038031;28;20091;-70
2022/07/03 06:32:56;;;;;;;3.58;2.88;;;22.30;73.10;;;;;;5039300;28;20468;-70
2022/07/03 06:35:21;;;;;;;3.40;2.83;;;22.40;72.60;;;;;;5037812;28;20040;-70
2022/07/03 06:37:47;;;;;;;5.65;3.13;;;22.50;73.00;;;;;;5037712;28;20044;-70
2022/07/03 06:40:12;;;;;;;3.88;2.92;;;22.50;72.00;;;;;;5036759;28;20514;-70
2022/07/03 06:42:38;;;;;;;3.60;2.60;;;22.60;71.80;;;;;;5039131;28;20036;-70
2022/07/03 06:45:04;;;;;;;4.47;2.90;;;22.60;71.30;;;;;;5037558;28;20037;-70
2022/07/03 06:47:29;;;;;;;4.45;2.90;;;22.70;71.30;;;;;;5037280;28;20033;-70
2022/07/03 06:49:55;;;;;;;3.85;2.88;;;22.70;71.40;;;;;;5036407;28;20182;-70
2022/07/03 06:52:21;;;;;;;3.60;2.90;;;22.80;71.10;;;;;;5037686;28;20138;-70
2022/07/03 06:54:46;;;;;;;5.15;3.25;;;22.80;70.40;;;;;;5037917;28;20033;-70
2022/07/03 06:57:14;;;;;;;3.92;2.70;;;22.90;70.70;;;;;;5036192;28;20040;-71
2022/07/03 06:59:41;;;;;;;5.78;2.92;;;23.00;70.20;;;;;;5037785;28;20032;-71
2022/07/03 07:02:07;;;;;;;3.97;3.22;;;23.00;70.00;;;;;;5040492;28;20261;-70
2022/07/03 07:04:33;;;;;;;3.42;2.65;;;23.10;70.20;;;;;;5037453;28;20461;-69
2022/07/03 07:06:59;;;;;;;4.63;2.85;;;23.20;70.00;;;;;;5040545;28;20147;-70
2022/07/03 07:09:24;;;;;;;3.95;2.85;;;23.20;69.90;;;;;;5037704;28;20511;-70
2022/07/03 07:11:50;;;;;;;4.95;3.03;;;23.30;69.50;;;;;;5037797;28;20111;-70
2022/07/03 07:14:15;;;;;;;3.33;2.80;;;23.30;69.50;;;;;;5037021;28;20076;-70
2022/07/03 07:16:41;;;;;;;3.50;2.70;;;23.40;68.90;;;;;;5040263;28;20033;-69
2022/07/03 07:19:06;;;;;;;6.05;3.20;;;23.50;68.80;;;;;;5036576;28;20076;-69
2022/07/03 07:21:32;;;;;;;2.97;2.65;;;23.60;68.50;;;;;;5037405;28;20037;-70
2022/07/03 07:23:57;;;;;;;4.57;2.50;;;23.60;68.40;;;;;;5035493;28;20087;-70
2022/07/03 07:26:23;;;;;;;3.30;2.92;;;23.70;68.60;;;;;;5036929;28;20040;-70
2022/07/03 07:28:48;;;;;;;3.63;2.53;;;23.70;67.90;;;;;;5050240;28;20036;-70
2022/07/03 07:31:14;;;;;;;3.40;2.35;;;23.80;67.80;;;;;;5037247;28;20029;-69
2022/07/03 07:33:40;;;;;;;3.83;2.47;;;23.90;67.60;;;;;;5037585;28;20021;-69
2022/07/03 07:36:05;;;;;;;2.85;2.22;;;24.00;67.40;;;;;;5037227;28;20035;-69
2022/07/03 07:38:31;;;;;;;3.30;2.80;;;24.00;67.40;;;;;;5037050;28;20033;-70
2022/07/03 07:40:56;;;;;;;3.63;2.65;;;24.10;67.00;;;;;;5036852;28;20106;-69
2022/07/03 07:43:22;;;;;;;3.97;2.97;;;24.20;67.00;;;;;;5037103;28;20055;-69
2022/07/03 07:45:48;;;;;;;3.75;3.22;;;24.30;67.30;;;;;;5036680;28;20821;-69
2022/07/03 07:48:13;;;;;;;4.65;2.88;;;24.40;66.60;;;;;;5041981;28;20120;-69
2022/07/03 07:50:39;;;;;;;4.10;3.00;;;24.50;66.40;;;;;;5038934;28;20021;-69
2022/07/03 07:53:04;;;;;;;3.08;2.42;;;24.50;66.10;;;;;;5037372;28;20152;-68
2022/07/03 07:55:30;;;;;;;3.17;2.60;;;24.60;65.80;;;;;;5033273;28;20040;-70
2022/07/03 07:57:55;;;;;;;5.97;2.53;;;24.70;66.10;;;;;;5036515;28;20114;-69
2022/07/03 08:00:22;;;;;;;4.15;2.50;;;24.70;65.90;;;;;;5035281;28;20033;-69
2022/07/03 08:05:38;;;;;;;;;;;24.90;65.30;;;;;;5036803;28;20116;-68
2022/07/03 08:08:13;;;;;;;4.60;2.25;;;24.90;66.00;;;;;;5036094;28;19920;-69
2022/07/03 08:10:47;;;;;;;4.22;2.80;;;25.00;64.60;;;;;;5037219;28;20044;-70
2022/07/03 08:13:14;;;;;;;3.58;2.45;;;25.10;64.60;;;;;;5035404;28;20452;-69
2022/07/03 08:15:41;;;;;;;4.43;2.40;;;25.10;63.70;;;;;;5037836;28;20087;-70
2022/07/03 08:18:07;;;;;;;5.13;2.90;;;25.20;63.30;;;;;;5039818;28;20049;-70
2022/07/03 08:20:33;;;;;;;6.45;4.13;;;25.20;63.40;;;;;;5039749;28;20025;-69
2022/07/03 08:23:00;;;;;;;4.43;2.65;;;25.30;63.50;;;;;;5040874;28;20546;-69
2022/07/03 08:25:26;;;;;;;5.75;2.78;;;25.40;62.90;;;;;;5039827;28;20175;-69
2022/07/03 08:27:52;;;;;;;5.88;2.65;;;25.40;62.40;;;;;;5042667;28;20029;-68
2022/07/03 08:30:18;;;;;;;2.83;2.22;;;25.50;62.50;;;;;;5041976;28;20044;-69
2022/07/03 08:32:49;;;;;;;3.47;2.72;;;25.60;62.20;;;;;;5037834;28;20112;-69
2022/07/03 08:35:15;;;;;;;4.80;2.70;;;25.60;62.00;;;;;;5039786;28;20157;-69
2022/07/03 08:37:42;;;;;;;4.47;2.67;;;25.70;62.00;;;;;;5040818;28;20120;-69
2022/07/03 08:40:09;;;;;;;5.53;2.80;;;25.70;62.60;;;;;;5039212;28;20032;-69
2022/07/03 08:42:38;;;;;;;3.90;2.75;;;25.80;61.70;;;;;;5040225;28;20033;-69
2022/07/03 08:45:06;;;;;;;4.90;2.60;;;25.80;61.30;;;;;;5039371;28;20029;-68
2022/07/03 08:47:33;;;;;;;3.90;2.50;;;25.90;61.40;;;;;;5040409;28;20037;-68
2022/07/03 08:50:00;;;;;;;5.55;2.83;;;26.00;61.20;;;;;;5038797;28;20492;-68
2022/07/03 08:52:26;;;;;;;3.00;2.42;;;26.00;60.90;;;;;;5039813;28;20074;-68
2022/07/03 08:54:52;;;;;;;3.97;2.92;;;26.10;60.70;;;;;;5039425;28;20028;-69
2022/07/03 08:57:18;;;;;;;3.70;3.10;;;26.10;61.20;;;;;;5038789;28;20021;-69
2022/07/03 08:59:49;;;;;;;3.83;2.88;;;26.10;60.90;;;;;;5045096;28;20115;-68
2022/07/03 09:02:15;;;;;;;3.97;2.75;;;26.20;60.30;;;;;;5041275;28;20124;-68
2022/07/03 09:04:40;;;;;;;4.03;3.03;;;26.30;60.20;;;;;;5038912;28;20459;-68
2022/07/03 09:07:07;;;;;;;5.40;2.95;;;26.40;60.40;;;;;;5040294;28;20036;-69
2022/07/03 09:09:33;;;;;;;3.00;2.40;;;26.40;60.20;;;;;;5039847;28;20103;-68
2022/07/03 09:11:59;;;;;;;3.05;2.30;;;26.40;59.30;;;;;;5039240;28;20086;-69
2022/07/03 09:14:24;;;;;;;3.10;2.30;;;26.50;59.50;;;;;;5049130;28;20041;-69
2022/07/03 09:16:51;;;;;;;3.33;2.60;;;26.60;59.40;;;;;;5045344;28;20032;-69
2022/07/03 09:19:39;;;;;;;3.40;2.17;;;26.60;59.40;;;;;;5038598;28;20424;-69
2022/07/03 09:22:20;;;;;;;3.70;2.50;;;26.70;59.10;;;;;;5039739;28;21160;-69
2022/07/03 09:24:45;;;;;;;3.15;2.67;;;26.70;58.70;;;;;;5038902;28;20025;-69
2022/07/03 09:27:17;;;;;;;4.43;2.60;;;26.80;59.20;;;;;;5036704;28;20040;-69
2022/07/03 09:30:00;;;;;;;2.67;2.30;;;26.80;58.10;;;;;;5039667;28;20020;-68
2022/07/03 09:32:32;;;;;;;3.95;3.03;;;26.80;58.10;;;;;;5045169;28;20036;-70
2022/07/03 09:35:24;;;;;;;5.20;2.65;;;26.90;57.80;;;;;;5037945;28;20156;-69
2022/07/03 09:37:57;;;;;;;6.25;2.97;;;27.00;57.90;;;;;;5040425;28;20025;-69
2022/07/03 09:40:25;;;;;;;4.87;2.60;;;27.10;57.70;;;;;;5039802;28;20378;-69
2022/07/03 09:43:02;;;;;;;3.35;2.30;;;27.10;57.90;;;;;;5039995;28;20024;-69
2022/07/03 09:45:52;;;;;;;2.53;2.33;;;27.10;57.30;;;;;;5040357;28;20033;-69
2022/07/03 09:48:37;;;;;;;3.47;2.70;;;27.20;57.40;;;;;;5041213;28;20025;-69
2022/07/03 09:51:14;;;;;;;3.20;2.50;;;27.20;57.40;;;;;;5040601;28;20021;-69
2022/07/03 09:53:50;;;;;;;3.10;2.15;;;27.30;56.70;;;;;;5039865;28;20040;-69
2022/07/03 09:56:18;;;;;;;4.05;2.50;;;27.30;56.60;;;;;;5037577;28;20044;-69
2022/07/03 09:59:10;;;;;;;3.63;2.45;;;27.40;56.70;;;;;;5044200;28;20032;-69
2022/07/03 10:01:38;;;;;;;4.57;2.78;;;27.50;56.80;;;;;;5043039;28;20028;-68
2022/07/03 10:04:14;;;;;;;3.22;2.47;;;27.50;56.30;;;;;;5061741;28;20043;-69
2022/07/03 10:07:08;;;;;;;3.15;2.40;;;27.50;56.00;;;;;;5051569;28;20028;-69
2022/07/03 10:09:35;;;;;;;2.75;2.00;;;27.60;56.40;;;;;;5035494;28;20044;-69
2022/07/03 10:12:03;;;;;;;3.65;1.95;;;27.60;55.90;;;;;;5051192;28;20040;-69
2022/07/03 10:14:31;;;;;;;3.13;2.30;;;27.70;55.60;;;;;;5051978;28;20177;-69
2022/07/03 10:16:57;;;;;;;2.92;2.20;;;27.70;55.70;;;;;;5052523;28;20067;-69
2022/07/03 10:19:27;;;;;;;2.60;2.10;;;27.80;55.80;;;;;;5050042;28;20457;-69
2022/07/03 10:21:55;;;;;;;4.70;2.10;;;27.80;55.40;;;;;;5052512;28;20102;-69
2022/07/03 10:24:23;;;;;;;3.42;2.13;;;27.90;54.90;;;;;;5051697;28;20029;-69
2022/07/03 10:26:50;;;;;;;4.35;2.00;;;27.90;54.60;;;;;;5054179;28;20369;-69
2022/07/03 10:29:16;;;;;;;5.00;2.00;;;27.90;54.80;;;;;;5072160;28;20027;-69
2022/07/03 10:31:45;;;;;;;4.28;2.47;;;27.90;55.00;;;;;;5060990;28;20025;-69
2022/07/03 10:34:11;;;;;;;4.38;2.20;;;28.00;54.70;;;;;;5037519;28;20094;-70
2022/07/03 10:36:38;;;;;;;7.65;3.13;;;28.00;55.20;;;;;;5036555;28;20480;-69
2022/07/03 10:39:06;;;;;;;3.45;2.50;;;28.10;55.20;;;;;;5037898;28;20033;-67
2022/07/03 10:47:40;;;;;;;3.00;2.10;;;28.30;55.00;;;;;;5037689;28;20147;-68
2022/07/03 10:50:13;;;;;;;4.03;2.35;;;28.30;55.20;;;;;;5037999;28;20037;-68
2022/07/03 10:52:40;;;;;;;2.80;2.20;;;28.30;54.90;;;;;;5037543;28;20439;-68
2022/07/03 10:55:09;;;;;;;3.08;2.30;;;28.30;54.70;;;;;;5036620;28;20060;-68
2022/07/03 10:57:36;;;;;;;3.88;2.30;;;28.30;54.50;;;;;;5038038;28;20036;-68
2022/07/03 11:00:05;;;;;;;2.97;2.28;;;28.30;54.30;;;;;;5036882;28;20485;-68
2022/07/03 11:02:39;;;;;;;4.32;2.40;;;28.30;54.50;;;;;;5037378;28;20032;-68
2022/07/03 11:05:05;;;;;;;;;;;28.40;54.50;;;;;;5037297;28;20447;-68
2022/07/03 11:07:32;;;;;;;3.22;2.30;;;28.40;54.20;;;;;;5037639;28;20008;-68
2022/07/03 11:10:12;;;;;;;2.65;2.17;;;28.40;54.70;;;;;;5036901;28;20078;-68
2022/07/03 11:13:11;;;;;;;3.08;2.30;;;28.50;54.50;;;;;;5037557;28;20027;-68
2022/07/03 11:15:37;;;;;;;3.97;2.25;;;28.60;54.20;;;;;;5049817;28;20396;-68
2022/07/03 11:18:06;;;;;;;3.58;2.72;;;28.60;54.20;;;;;;5051467;28;20017;-69
2022/07/03 11:20:32;;;;;;;3.15;2.65;;;28.70;54.00;;;;;;5041426;28;20104;-68
2022/07/03 11:23:12;;;;;;;4.57;2.72;;;28.70;54.00;;;;;;5031273;28;20028;-68
2022/07/03 11:25:43;;;;;;;2.90;2.53;;;28.70;53.90;;;;;;5031656;28;20030;-68
2022/07/03 11:28:30;;;;;;;4.15;2.40;;;28.80;53.70;;;;;;5044452;28;20380;-68
2022/07/03 11:31:13;;;;;;;4.18;1.98;;;28.90;53.50;;;;;;5051532;28;20444;-68
2022/07/03 11:33:55;;;;;;;2.25;2.03;;;29.00;53.50;;;;;;5051144;28;20029;-68
2022/07/03 11:36:21;;;;;;;2.58;1.90;;;29.10;53.70;;;;;;5049725;28;20489;-68
2022/07/03 11:38:59;;;;;;;4.28;1.95;;;29.20;53.60;;;;;;5048305;28;20120;-68
2022/07/03 11:41:27;;;;;;;2.25;2.03;;;29.30;54.00;;;;;;5046748;28;20477;-68
2022/07/03 11:43:55;;;;;;;2.70;2.30;;;29.40;53.30;;;;;;5039816;28;20111;-68
2022/07/03 11:46:28;;;;;;;2.65;2.13;;;29.40;52.90;;;;;;5050718;28;20044;-68
2022/07/03 11:49:08;;;;;;;2.63;2.00;;;29.40;52.30;;;;;;5046046;28;20033;-68
2022/07/03 11:51:35;;;;;;;3.08;2.33;;;29.40;52.40;;;;;;5052996;28;20484;-68
2022/07/03 11:54:02;;;;;;;3.70;2.30;;;29.50;52.60;;;;;;5047581;28;20029;-68
2022/07/03 11:56:28;;;;;;;4.15;2.47;;;29.50;52.50;;;;;;5052664;28;20036;-68
2022/07/03 11:58:59;;;;;;;2.67;2.20;;;29.60;52.10;;;;;;5046548;28;20021;-68
2022/07/03 12:01:30;;;;;;;3.28;2.53;;;29.70;51.70;;;;;;5054503;28;20040;-69
2022/07/03 12:04:16;;;;;;;2.70;1.95;;;29.70;51.10;;;;;;5053906;28;20021;-68
2022/07/03 12:06:48;;;;;;;4.65;2.20;;;29.70;51.40;;;;;;5055155;28;20045;-69
2022/07/03 12:09:29;;;;;;;2.63;1.85;;;29.70;51.60;;;;;;5039795;28;20037;-68
2022/07/03 12:11:58;;;;;;;4.57;1.92;;;29.70;51.40;;;;;;5035038;28;20397;-70
2022/07/03 12:14:48;;;;;;;2.53;2.00;;;29.70;51.30;;;;;;5043057;28;20037;-66
2022/07/03 12:17:17;;;;;;;5.53;2.55;;;29.70;50.70;;;;;;5054839;28;20021;-68
2022/07/03 12:19:56;;;;;;;3.50;2.60;;;29.70;50.90;;;;;;5053608;28;20033;-68
2022/07/03 12:22:29;;;;;;;4.53;2.15;;;29.80;51.80;;;;;;5053453;28;20515;-67
2022/07/03 12:25:00;;;;;;;3.38;2.30;;;29.90;51.80;;;;;;5052837;28;20025;-68
2022/07/03 12:27:26;;;;;;;4.97;2.13;;;30.00;51.10;;;;;;5056885;28;20105;-67
2022/07/03 12:29:52;;;;;;;3.17;2.10;;;30.10;50.70;;;;;;5054381;28;20108;-67
2022/07/03 12:32:18;;;;;;;3.35;2.38;;;30.20;51.00;;;;;;5047263;28;20033;-67
2022/07/03 12:34:43;;;;;;;2.60;2.00;;;30.30;51.50;;;;;;5054979;28;20033;-67
2022/07/03 12:37:09;;;;;;;2.60;2.10;;;30.40;50.00;;;;;;5054200;28;20404;-68
2022/07/03 12:39:45;;;;;;;2.47;1.90;;;30.50;50.10;;;;;;5058637;28;20037;-68
2022/07/03 12:42:17;;;;;;;2.42;1.98;;;30.60;48.40;;;;;;5054675;28;20055;-68
2022/07/03 12:44:53;;;;;;;3.28;2.50;;;30.50;49.20;;;;;;5053735;28;20029;-68
2022/07/03 12:47:19;;;;;;;4.05;2.65;;;30.60;49.30;;;;;;5051638;28;20025;-68
2022/07/03 12:49:45;;;;;;;3.53;2.10;;;30.70;49.20;;;;;;5053095;28;20040;-68
2022/07/03 12:52:12;;;;;;;2.67;1.98;;;30.80;49.20;;;;;;5053848;28;20020;-68
2022/07/03 12:54:37;;;;;;;2.90;2.05;;;30.90;48.10;;;;;;5044509;28;20037;-68
2022/07/03 13:00:16;;;;;;;2.80;2.00;;;30.70;48.20;;;;;;5045787;28;20044;-70
2022/07/03 13:02:43;;;;;;;4.35;1.85;;;30.70;48.00;;;;;;5040515;28;20487;-71
2022/07/03 13:05:20;;;;;;;3.25;2.30;;;30.70;48.50;;;;;;5040959;28;20033;-69
2022/07/03 13:07:53;;;;;;;2.63;2.10;;;30.70;48.70;;;;;;5040890;28;20024;-70
2022/07/03 13:10:21;;;;;;;2.58;1.92;;;30.70;49.00;;;;;;5041859;28;20048;-68
2022/07/03 13:12:54;;;;;;;2.75;2.20;;;30.80;48.90;;;;;;5040446;28;20029;-68
2022/07/03 13:18:59;;;;;;;2.42;1.92;;;31.00;49.20;;;;;;5049469;28;20114;-68